sensor_id;sensor_type;location;lat;lon;timestamp;pressure;altitude;pressure_sealevel;temperature;humidity
6500;BME280;3283;52.330;9.772;2023-07-13T04:03:18;100650.72;;;16.47;100.00
6500;BME280;3283;52.330;9.772;2023-07-13T04:05:43;100654.34;;;16.70;100.00
6500;BME280;3283;52.330;9.772;2023-07-13T04:08:09;100643.59;;;16.96;100.00
6500;BME280;3283;52.330;9.772;2023-07-13T04:10:34;100646.25;;;17.20;100.00
6500;BME280;3283;52.330;9.772;2023-07-13T04:12:59;100646.28;;;17.40;100.00
6500;BME280;3283;52.330;9.772;2023-07-13T04:15:27;100646.97;;;17.45;100.00
6500;BME280;3283;52.330;9.772;2023-07-13T04:17:52;100649.13;;;17.57;100.00
6500;BME280;3283;52.330;9.772;2023-07-13T04:20:18;100653.38;;;17.62;100.00
6500;BME280;3283;52.330;9.772;2023-07-13T04:22:45;100654.38;;;17.59;100.00
6500;BME280;3283;52.330;9.772;2023-07-13T04:25:11;100656.97;;;17.61;100.00
6500;BME280;3283;52.330;9.772;2023-07-13T04:27:36;100662.44;;;17.57;100.00
6500;BME280;3283;52.330;9.772;2023-07-13T04:30:01;100652.66;;;17.58;100.00
6500;BME280;3283;52.330;9.772;2023-07-13T04:32:27;100663.53;;;17.52;100.00
6500;BME280;3283;52.330;9.772;2023-07-13T04:34:52;100667.88;;;17.54;100.00
6500;BME280;3283;52.330;9.772;2023-07-13T04:37:21;100657.13;;;17.57;100.00
6500;BME280;3283;52.330;9.772;2023-07-13T04:39:46;100659.53;;;17.64;100.00
6500;BME280;3283;52.330;9.772;2023-07-13T04:42:12;100654.13;;;17.65;100.00
6500;BME280;3283;52.330;9.772;2023-07-13T04:44:37;100656.34;;;17.76;100.00
6500;BME280;3283;52.330;9.772;2023-07-13T04:47:03;100655.31;;;17.80;100.00
6500;BME280;3283;52.330;9.772;2023-07-13T04:49:28;100657.28;;;17.75;100.00
6500;BME280;3283;52.330;9.772;2023-07-13T04:51:53;100663.38;;;17.78;100.00
6500;BME280;3283;52.330;9.772;2023-07-13T04:54:20;100649.28;;;17.76;100.00
6500;BME280;3283;52.330;9.772;2023-07-13T04:56:45;100657.28;;;17.75;100.00
6500;BME280;3283;52.330;9.772;2023-07-13T04:59:10;100659.84;;;17.78;100.00
6500;BME280;3283;52.330;9.772;2023-07-13T05:01:36;100668.53;;;17.83;100.00
6500;BME280;3283;52.330;9.772;2023-07-13T05:04:01;100667.00;;;17.98;100.00
6500;BME280;3283;52.330;9.772;2023-07-13T05:06:26;100662.13;;;17.87;100.00
6500;BME280;3283;52.330;9.772;2023-07-13T05:08:52;100672.66;;;17.90;100.00
6500;BME280;3283;52.330;9.772;2023-07-13T05:11:18;100671.56;;;17.94;100.00
6500;BME280;3283;52.330;9.772;2023-07-13T05:13:43;100673.72;;;18.06;100.00
6500;BME280;3283;52.330;9.772;2023-07-13T05:16:09;100680.50;;;18.14;100.00
6500;BME280;3283;52.330;9.772;2023-07-13T05:18:34;100676.84;;;18.16;100.00
6500;BME280;3283;52.330;9.772;2023-07-13T05:21:06;100682.50;;;18.29;100.00
6500;BME280;3283;52.330;9.772;2023-07-13T05:23:33;100681.13;;;18.41;100.00
6500;BME280;3283;52.330;9.772;2023-07-13T05:25:58;100689.41;;;18.53;100.00
6500;BME280;3283;52.330;9.772;2023-07-13T05:28:25;100685.16;;;18.70;100.00
6500;BME280;3283;52.330;9.772;2023-07-13T05:30:51;100686.38;;;18.81;100.00
6500;BME280;3283;52.330;9.772;2023-07-13T05:33:17;100689.00;;;18.83;100.00
6500;BME280;3283;52.330;9.772;2023-07-13T05:35:43;100686.19;;;18.86;100.00
6500;BME280;3283;52.330;9.772;2023-07-13T05:38:08;100692.47;;;18.85;100.00
6500;BME280;3283;52.330;9.772;2023-07-13T05:40:33;100693.31;;;18.85;100.00
6500;BME280;3283;52.330;9.772;2023-07-13T05:42:59;100687.78;;;19.09;100.00
6500;BME280;3283;52.330;9.772;2023-07-13T05:45:24;100701.56;;;19.18;100.00
6500;BME280;3283;52.330;9.772;2023-07-13T05:47:49;100699.22;;;19.30;100.00
6500;BME280;3283;52.330;9.772;2023-07-13T05:50:15;100699.69;;;19.39;100.00
6500;BME280;3283;52.330;9.772;2023-07-13T05:52:40;100704.94;;;19.41;100.00
6500;BME280;3283;52.330;9.772;2023-07-13T05:55:05;100705.59;;;19.46;100.00
6500;BME280;3283;52.330;9.772;2023-07-13T05:57:31;100699.44;;;19.44;100.00
6500;BME280;3283;52.330;9.772;2023-07-13T05:59:57;100704.94;;;19.41;100.00
6500;BME280;3283;52.330;9.772;2023-07-13T06:02:22;100704.47;;;19.50;100.00
6500;BME280;3283;52.330;9.772;2023-07-13T06:04:47;100705.72;;;19.43;100.00
6500;BME280;3283;52.330;9.772;2023-07-13T06:07:13;100710.59;;;19.52;100.00
6500;BME280;3283;52.330;9.772;2023-07-13T06:09:38;100705.41;;;19.49;100.00
6500;BME280;3283;52.330;9.772;2023-07-13T06:12:04;100703.69;;;19.48;100.00
6500;BME280;3283;52.330;9.772;2023-07-13T06:14:29;100696.00;;;19.61;100.00
6500;BME280;3283;52.330;9.772;2023-07-13T06:16:55;100705.84;;;19.78;100.00
6500;BME280;3283;52.330;9.772;2023-07-13T06:19:20;100699.59;;;19.96;100.00
6500;BME280;3283;52.330;9.772;2023-07-13T06:21:45;100699.34;;;20.18;100.00
6500;BME280;3283;52.330;9.772;2023-07-13T06:24:11;100704.34;;;20.41;100.00
6500;BME280;3283;52.330;9.772;2023-07-13T06:26:36;100702.25;;;20.30;100.00
6500;BME280;3283;52.330;9.772;2023-07-13T06:29:01;100706.03;;;20.26;100.00
6500;BME280;3283;52.330;9.772;2023-07-13T06:31:27;100710.56;;;20.42;100.00
6500;BME280;3283;52.330;9.772;2023-07-13T06:33:52;100713.41;;;20.39;100.00
6500;BME280;3283;52.330;9.772;2023-07-13T06:36:17;100717.81;;;20.40;100.00
6500;BME280;3283;52.330;9.772;2023-07-13T06:38:43;100717.81;;;20.40;100.00
6500;BME280;3283;52.330;9.772;2023-07-13T06:41:08;100713.88;;;20.29;100.00
6500;BME280;3283;52.330;9.772;2023-07-13T06:43:34;100721.56;;;20.36;100.00
6500;BME280;3283;52.330;9.772;2023-07-13T06:45:59;100707.75;;;20.27;100.00
6500;BME280;3283;52.330;9.772;2023-07-13T06:48:26;100722.69;;;20.32;100.00
6500;BME280;3283;52.330;9.772;2023-07-13T06:50:51;100724.56;;;20.29;100.00
6500;BME280;3283;52.330;9.772;2023-07-13T06:53:19;100720.78;;;19.99;100.00
6500;BME280;3283;52.330;9.772;2023-07-13T06:55:44;100728.78;;;19.82;100.00
6500;BME280;3283;52.330;9.772;2023-07-13T06:58:10;100728.63;;;19.85;100.00
6500;BME280;3283;52.330;9.772;2023-07-13T07:00:36;100727.63;;;19.49;100.00
6500;BME280;3283;52.330;9.772;2023-07-13T07:03:01;100722.03;;;19.18;100.00
6500;BME280;3283;52.330;9.772;2023-07-13T07:05:26;100728.31;;;18.98;100.00
6500;BME280;3283;52.330;9.772;2023-07-13T07:07:54;100734.59;;;19.35;100.00
6500;BME280;3283;52.330;9.772;2023-07-13T07:10:21;100731.56;;;19.61;100.00
6500;BME280;3283;52.330;9.772;2023-07-13T07:12:46;100733.88;;;19.86;100.00
6500;BME280;3283;52.330;9.772;2023-07-13T07:15:11;100728.66;;;20.19;99.74
6500;BME280;3283;52.330;9.772;2023-07-13T07:17:37;100739.50;;;20.68;97.82
6500;BME280;3283;52.330;9.772;2023-07-13T07:20:03;100739.44;;;21.03;92.17
6500;BME280;3283;52.330;9.772;2023-07-13T07:22:29;100736.69;;;21.20;91.48
6500;BME280;3283;52.330;9.772;2023-07-13T07:24:56;100735.66;;;21.23;90.46
6500;BME280;3283;52.330;9.772;2023-07-13T07:27:22;100732.94;;;21.40;92.57
6500;BME280;3283;52.330;9.772;2023-07-13T07:29:47;100740.28;;;21.52;89.27
6500;BME280;3283;52.330;9.772;2023-07-13T07:32:12;100747.03;;;21.44;86.47
6500;BME280;3283;52.330;9.772;2023-07-13T07:34:38;100756.19;;;21.39;86.71
6500;BME280;3283;52.330;9.772;2023-07-13T07:37:03;100744.78;;;21.67;85.53
6500;BME280;3283;52.330;9.772;2023-07-13T07:39:29;100751.16;;;21.33;89.38
6500;BME280;3283;52.330;9.772;2023-07-13T07:41:54;100739.69;;;21.14;88.02
6500;BME280;3283;52.330;9.772;2023-07-13T07:44:19;100745.44;;;21.24;86.48
6500;BME280;3283;52.330;9.772;2023-07-13T07:46:45;100748.44;;;21.18;86.55
6500;BME280;3283;52.330;9.772;2023-07-13T07:49:10;100750.16;;;21.19;87.65
6500;BME280;3283;52.330;9.772;2023-07-13T07:51:37;100745.66;;;21.19;86.08
6500;BME280;3283;52.330;9.772;2023-07-13T07:54:03;100750.06;;;21.20;86.06
6500;BME280;3283;52.330;9.772;2023-07-13T07:56:29;100744.19;;;21.13;86.20
6500;BME280;3283;52.330;9.772;2023-07-13T07:58:55;100749.53;;;21.47;87.00
6500;BME280;3283;52.330;9.772;2023-07-13T08:01:20;100742.44;;;21.61;86.17
6500;BME280;3283;52.330;9.772;2023-07-13T08:03:45;100737.94;;;21.93;84.79
6500;BME280;3283;52.330;9.772;2023-07-13T08:06:11;100741.63;;;21.91;80.95
6500;BME280;3283;52.330;9.772;2023-07-13T08:08:36;100743.06;;;21.66;81.20
6500;BME280;3283;52.330;9.772;2023-07-13T08:11:05;100737.53;;;21.54;83.20
6500;BME280;3283;52.330;9.772;2023-07-13T08:13:32;100738.56;;;21.67;84.49
6500;BME280;3283;52.330;9.772;2023-07-13T08:15:57;100742.06;;;22.15;82.90
6500;BME280;3283;52.330;9.772;2023-07-13T08:18:24;100738.34;;;22.02;83.55
6500;BME280;3283;52.330;9.772;2023-07-13T08:20:49;100747.53;;;21.66;84.03
6500;BME280;3283;52.330;9.772;2023-07-13T08:23:14;100757.03;;;21.40;83.34
6500;BME280;3283;52.330;9.772;2023-07-13T08:25:42;100742.22;;;20.84;86.81
6500;BME280;3283;52.330;9.772;2023-07-13T08:28:07;100746.09;;;21.11;87.89
6500;BME280;3283;52.330;9.772;2023-07-13T08:30:33;100742.53;;;21.60;86.53
6500;BME280;3283;52.330;9.772;2023-07-13T08:32:58;100747.88;;;21.60;85.61
6500;BME280;3283;52.330;9.772;2023-07-13T08:35:24;100747.06;;;21.26;86.23
6500;BME280;3283;52.330;9.772;2023-07-13T08:37:51;100756.91;;;20.93;86.74
6500;BME280;3283;52.330;9.772;2023-07-13T08:40:16;100757.91;;;20.74;88.78
6500;BME280;3283;52.330;9.772;2023-07-13T08:42:46;100756.03;;;21.25;88.62
6500;BME280;3283;52.330;9.772;2023-07-13T08:45:38;100751.50;;;21.75;86.16
6500;BME280;3283;52.330;9.772;2023-07-13T08:48:25;100751.88;;;21.53;85.00
6500;BME280;3283;52.330;9.772;2023-07-13T08:53:21;100752.38;;;21.75;84.19
6500;BME280;3283;52.330;9.772;2023-07-13T08:55:58;100741.91;;;22.32;80.91
6500;BME280;3283;52.330;9.772;2023-07-13T08:58:25;100741.91;;;22.77;80.85
6500;BME280;3283;52.330;9.772;2023-07-13T09:01:33;100747.16;;;22.78;79.89
6500;BME280;3283;52.330;9.772;2023-07-13T09:04:12;100747.31;;;22.16;80.79
6500;BME280;3283;52.330;9.772;2023-07-13T09:06:59;100756.25;;;21.70;83.12
6500;BME280;3283;52.330;9.772;2023-07-13T09:09:50;100756.00;;;21.74;87.72
6500;BME280;3283;52.330;9.772;2023-07-13T09:15:07;100765.94;;;21.41;85.70
6500;BME280;3283;52.330;9.772;2023-07-13T09:17:49;100766.47;;;21.47;86.02
6500;BME280;3283;52.330;9.772;2023-07-13T09:22:43;100760.75;;;22.61;81.47
6500;BME280;3283;52.330;9.772;2023-07-13T09:25:29;100764.25;;;22.47;80.56
6500;BME280;3283;52.330;9.772;2023-07-13T09:27:58;100764.72;;;22.69;79.52
6500;BME280;3283;52.330;9.772;2023-07-13T09:33:13;100763.94;;;22.37;79.57
6500;BME280;3283;52.330;9.772;2023-07-13T09:35:39;100767.25;;;21.81;82.65
6500;BME280;3283;52.330;9.772;2023-07-13T09:38:16;100767.06;;;21.68;84.27
6500;BME280;3283;52.330;9.772;2023-07-13T09:41:21;100771.56;;;21.67;88.87
6500;BME280;3283;52.330;9.772;2023-07-13T09:46:27;100766.19;;;21.99;84.52
6500;BME280;3283;52.330;9.772;2023-07-13T09:48:52;100765.50;;;21.96;86.12
6500;BME280;3283;52.330;9.772;2023-07-13T09:51:18;100761.25;;;21.91;84.78
6500;BME280;3283;52.330;9.772;2023-07-13T09:53:43;100767.75;;;21.87;85.56
6500;BME280;3283;52.330;9.772;2023-07-13T09:56:29;100775.88;;;21.70;86.82
6500;BME280;3283;52.330;9.772;2023-07-13T09:58:58;100766.13;;;21.85;89.00
6500;BME280;3283;52.330;9.772;2023-07-13T10:01:37;100771.75;;;22.26;86.21
6500;BME280;3283;52.330;9.772;2023-07-13T10:04:13;100763.69;;;23.00;82.16
6500;BME280;3283;52.330;9.772;2023-07-13T10:06:39;100754.66;;;23.44;79.11
6500;BME280;3283;52.330;9.772;2023-07-13T10:09:08;100757.09;;;24.03;74.67
6500;BME280;3283;52.330;9.772;2023-07-13T10:11:35;100761.00;;;23.29;74.82
6500;BME280;3283;52.330;9.772;2023-07-13T10:14:15;100758.44;;;22.69;77.13
6500;BME280;3283;52.330;9.772;2023-07-13T10:16:43;100766.22;;;22.29;79.94
6500;BME280;3283;52.330;9.772;2023-07-13T10:19:20;100766.34;;;22.28;82.13
6500;BME280;3283;52.330;9.772;2023-07-13T10:21:54;100764.28;;;22.01;82.48
6500;BME280;3283;52.330;9.772;2023-07-13T10:24:22;100772.34;;;22.31;78.49
6500;BME280;3283;52.330;9.772;2023-07-13T10:27:19;100757.66;;;22.53;74.75
6500;BME280;3283;52.330;9.772;2023-07-13T10:29:56;100763.75;;;22.70;73.76
6500;BME280;3283;52.330;9.772;2023-07-13T10:32:24;100759.13;;;22.58;71.94
6500;BME280;3283;52.330;9.772;2023-07-13T10:34:50;100765.50;;;22.41;73.52
6500;BME280;3283;52.330;9.772;2023-07-13T10:37:23;100766.41;;;22.56;76.80
6500;BME280;3283;52.330;9.772;2023-07-13T10:39:52;100775.03;;;23.06;73.56
6500;BME280;3283;52.330;9.772;2023-07-13T10:42:27;100769.06;;;23.29;72.03
6500;BME280;3283;52.330;9.772;2023-07-13T10:44:53;100767.94;;;23.05;71.92
6500;BME280;3283;52.330;9.772;2023-07-13T10:47:18;100763.78;;;23.27;70.55
6500;BME280;3283;52.330;9.772;2023-07-13T10:49:45;100760.41;;;23.24;70.94
6500;BME280;3283;52.330;9.772;2023-07-13T10:52:45;100765.22;;;23.33;68.25
6500;BME280;3283;52.330;9.772;2023-07-13T10:55:31;100761.25;;;22.82;69.44
6500;BME280;3283;52.330;9.772;2023-07-13T11:03:23;100759.72;;;24.17;66.90
6500;BME280;3283;52.330;9.772;2023-07-13T11:06:33;100763.69;;;24.38;65.59
6500;BME280;3283;52.330;9.772;2023-07-13T11:08:58;100762.91;;;23.97;64.81
6500;BME280;3283;52.330;9.772;2023-07-13T11:18:45;100759.25;;;23.98;65.22
6500;BME280;3283;52.330;9.772;2023-07-13T11:21:17;100767.28;;;23.71;66.07
6500;BME280;3283;52.330;9.772;2023-07-13T11:23:44;100768.03;;;23.58;67.15
6500;BME280;3283;52.330;9.772;2023-07-13T11:26:42;100760.25;;;23.13;69.74
6500;BME280;3283;52.330;9.772;2023-07-13T11:31:40;100762.22;;;24.20;68.69
6500;BME280;3283;52.330;9.772;2023-07-13T11:34:23;100764.91;;;24.60;65.61
6500;BME280;3283;52.330;9.772;2023-07-13T11:36:52;100761.94;;;24.37;62.57
6500;BME280;3283;52.330;9.772;2023-07-13T11:39:20;100764.75;;;24.36;63.32
6500;BME280;3283;52.330;9.772;2023-07-13T11:41:53;100754.72;;;23.71;63.54
6500;BME280;3283;52.330;9.772;2023-07-13T11:44:23;100750.91;;;23.88;65.04
6500;BME280;3283;52.330;9.772;2023-07-13T11:46:54;100753.59;;;24.55;65.36
6500;BME280;3283;52.330;9.772;2023-07-13T11:49:22;100761.66;;;24.55;63.44
6500;BME280;3283;52.330;9.772;2023-07-13T11:51:48;100752.19;;;24.49;62.15
6500;BME280;3283;52.330;9.772;2023-07-13T11:54:29;100748.41;;;24.64;63.60
6500;BME280;3283;52.330;9.772;2023-07-13T11:57:01;100736.91;;;24.50;63.05
6500;BME280;3283;52.330;9.772;2023-07-13T11:59:29;100742.84;;;24.68;62.72
6500;BME280;3283;52.330;9.772;2023-07-13T12:01:55;100741.09;;;24.54;61.09
6500;BME280;3283;52.330;9.772;2023-07-13T12:04:25;100741.28;;;24.38;62.14
6500;BME280;3283;52.330;9.772;2023-07-13T12:06:56;100739.59;;;24.62;62.70
6500;BME280;3283;52.330;9.772;2023-07-13T12:09:21;100749.28;;;25.03;62.02
6500;BME280;3283;52.330;9.772;2023-07-13T12:11:50;100743.78;;;25.30;61.37
6500;BME280;3283;52.330;9.772;2023-07-13T12:14:17;100743.66;;;25.81;59.00
6500;BME280;3283;52.330;9.772;2023-07-13T12:16:45;100742.16;;;25.77;58.50
6500;BME280;3283;52.330;9.772;2023-07-13T12:19:20;100745.72;;;25.65;60.61
6500;BME280;3283;52.330;9.772;2023-07-13T12:21:46;100751.47;;;25.73;61.16
6500;BME280;3283;52.330;9.772;2023-07-13T12:24:17;100744.03;;;24.76;60.60
6500;BME280;3283;52.330;9.772;2023-07-13T12:26:43;100749.72;;;24.46;62.40
6500;BME280;3283;52.330;9.772;2023-07-13T12:29:15;100751.19;;;24.37;62.28
6500;BME280;3283;52.330;9.772;2023-07-13T12:31:43;100758.84;;;24.44;63.34
6500;BME280;3283;52.330;9.772;2023-07-13T12:34:14;100760.94;;;24.26;63.75
6500;BME280;3283;52.330;9.772;2023-07-13T12:36:47;100762.81;;;24.38;63.80
6500;BME280;3283;52.330;9.772;2023-07-13T12:39:33;100757.78;;;24.46;64.28
6500;BME280;3283;52.330;9.772;2023-07-13T12:42:24;100756.06;;;24.71;64.01
6500;BME280;3283;52.330;9.772;2023-07-13T12:44:54;100748.84;;;25.22;64.00
6500;BME280;3283;52.330;9.772;2023-07-13T12:47:21;100749.38;;;25.40;63.10
6500;BME280;3283;52.330;9.772;2023-07-13T12:49:54;100754.31;;;25.83;62.61
6500;BME280;3283;52.330;9.772;2023-07-13T12:52:23;100751.81;;;25.43;60.90
6500;BME280;3283;52.330;9.772;2023-07-13T12:55:07;100766.78;;;25.10;61.68
6500;BME280;3283;52.330;9.772;2023-07-13T12:58:02;100768.78;;;24.69;63.83
6500;BME280;3283;52.330;9.772;2023-07-13T13:00:33;100776.19;;;24.40;63.02
6500;BME280;3283;52.330;9.772;2023-07-13T13:05:47;100783.56;;;23.82;63.63
6500;BME280;3283;52.330;9.772;2023-07-13T13:08:13;100783.59;;;23.68;66.68
6500;BME280;3283;52.330;9.772;2023-07-13T13:13:04;100798.34;;;22.15;78.12
6500;BME280;3283;52.330;9.772;2023-07-13T13:15:29;100790.16;;;21.22;98.35
6500;BME280;3283;52.330;9.772;2023-07-13T13:17:55;100805.56;;;20.83;100.00
6500;BME280;3283;52.330;9.772;2023-07-13T13:20:22;100827.16;;;20.27;100.00
6500;BME280;3283;52.330;9.772;2023-07-13T13:22:48;100842.47;;;17.82;100.00
6500;BME280;3283;52.330;9.772;2023-07-13T13:25:14;100833.41;;;16.92;100.00
6500;BME280;3283;52.330;9.772;2023-07-13T13:27:43;100840.66;;;16.61;100.00
6500;BME280;3283;52.330;9.772;2023-07-13T13:30:14;100855.31;;;16.74;100.00
6500;BME280;3283;52.330;9.772;2023-07-13T13:32:41;100859.53;;;16.53;100.00
6500;BME280;3283;52.330;9.772;2023-07-13T13:35:19;100860.16;;;16.88;100.00
6500;BME280;3283;52.330;9.772;2023-07-13T13:37:46;100870.25;;;17.98;100.00
6500;BME280;3283;52.330;9.772;2023-07-13T13:40:17;100874.69;;;18.63;100.00
6500;BME280;3283;52.330;9.772;2023-07-13T17:01:24;100937.47;;;18.05;100.00
6500;BME280;3283;52.330;9.772;2023-07-13T17:03:49;100938.53;;;18.23;100.00
6500;BME280;3283;52.330;9.772;2023-07-13T17:06:22;100936.06;;;18.40;100.00
6500;BME280;3283;52.330;9.772;2023-07-13T17:08:49;100936.50;;;18.51;100.00
